Time;durP1;ratioP1;P1;durP2;ratioP2;P2;SDS_P1;SDS_P2;PMS_P1;PMS_P2;Temp;Humidity;BMP_temperature;BMP_pressure;BME280_temperature;BME280_humidity;BME280_pressure;Samples;Min_cycle;Max_cycle;Signal;HPM_P1;HPM_P2
2022/09/07 00:01:04;;;;;;;4.25;1.45;;;;;;;24.15;50.81;101429.69;4867571;29;20153;-92
2022/09/07 00:03:30;;;;;;;4.28;1.60;;;;;;;24.14;50.56;101425.34;4841024;29;20071;-92
2022/09/07 00:05:56;;;;;;;3.13;1.50;;;;;;;24.15;50.57;101438.47;4851995;29;20060;-92
2022/09/07 00:08:23;;;;;;;3.38;1.48;;;;;;;24.15;50.86;101437.56;4857545;29;20050;-92
2022/09/07 00:10:52;;;;;;;2.72;1.50;;;;;;;24.15;51.09;101425.31;4850140;29;20054;-92
2022/09/07 00:13:18;;;;;;;3.47;1.70;;;;;;;24.15;50.81;101416.53;4857370;29;20269;-92
2022/09/07 00:15:43;;;;;;;2.83;1.60;;;;;;;24.16;50.92;101413.03;4850919;29;20559;-92
2022/09/07 00:18:08;;;;;;;3.80;1.90;;;;;;;24.15;50.83;101414.78;4857446;29;20505;-91
2022/09/07 00:20:34;;;;;;;2.95;1.58;;;;;;;24.15;51.05;101411.28;4836097;29;20059;-93
2022/09/07 00:22:59;;;;;;;4.63;1.70;;;;;;;24.15;51.01;101399.03;4836636;29;20057;-92
2022/09/07 00:25:25;;;;;;;2.50;1.50;;;;;;;24.14;50.91;101380.66;4840681;29;20053;-92
2022/09/07 00:27:50;;;;;;;3.83;1.60;;;;;;;24.14;50.72;101368.34;4835150;29;20061;-92
2022/09/07 00:30:17;;;;;;;3.78;1.58;;;;;;;24.13;50.92;101358.75;4841940;29;20060;-91
2022/09/07 00:32:42;;;;;;;3.70;1.50;;;;;;;24.12;51.03;101350.91;4850288;29;20060;-92
2022/09/07 00:35:08;;;;;;;7.68;1.70;;;;;;;24.14;50.72;101349.94;4857413;29;20053;-91
2022/09/07 00:37:33;;;;;;;2.97;1.48;;;;;;;24.14;50.79;101343.84;4835545;29;20049;-91
2022/09/07 00:39:59;;;;;;;2.95;1.63;;;;;;;24.15;51.04;101340.28;4835665;29;20145;-91
2022/09/07 00:42:25;;;;;;;3.33;1.38;;;;;;;24.14;51.01;101328.06;4835616;29;20061;-89
2022/09/07 00:45:05;;;;;;;2.95;1.30;;;;;;;24.14;50.68;101325.44;4848727;29;20053;-91
2022/09/07 00:47:36;;;;;;;3.65;1.70;;;;;;;24.13;50.58;101311.44;4850994;29;20401;-91
2022/09/07 00:50:07;;;;;;;3.15;1.50;;;;;;;24.13;50.99;101293.03;4851585;29;20105;-91
2022/09/07 00:52:34;;;;;;;2.95;1.40;;;;;;;24.13;50.54;101287.75;4854655;29;20057;-91
2022/09/07 00:55:05;;;;;;;3.40;1.30;;;;;;;24.14;50.83;101293.88;4850967;29;20141;-91
2022/09/07 00:57:31;;;;;;;2.95;1.45;;;;;;;24.12;50.89;101295.69;4869964;29;20057;-91
2022/09/07 00:59:58;;;;;;;2.50;1.38;;;;;;;24.14;50.63;101294.72;4850663;29;20442;-92
2022/09/07 01:02:24;;;;;;;3.95;1.50;;;;;;;24.14;51.02;101286.00;4855804;29;20046;-92
2022/09/07 01:04:56;;;;;;;1.98;1.33;;;;;;;24.14;50.78;101280.72;4834275;29;20057;-91
2022/09/07 01:07:22;;;;;;;2.25;1.15;;;;;;;24.13;50.94;101273.75;4856319;29;20433;-92
2022/09/07 01:09:49;;;;;;;1.65;1.10;;;;;;;24.13;50.52;101265.88;4849929;29;20110;-92
2022/09/07 01:12:15;;;;;;;5.35;1.50;;;;;;;24.13;50.94;101274.63;4870019;29;20073;-92
2022/09/07 01:14:47;;;;;;;2.58;1.33;;;;;;;24.13;50.51;101272.00;4837610;29;20096;-90
2022/09/07 01:20:38;;;;;;;3.63;1.50;;;;;;;24.13;50.67;101261.47;4875497;29;20465;-92
2022/09/07 01:23:39;;;;;;;2.70;1.40;;;;;;;24.14;50.91;101264.94;4859094;29;20061;-91
2022/09/07 01:26:32;;;;;;;3.22;1.40;;;;;;;24.14;50.92;101264.94;4858978;29;20049;-92
2022/09/07 01:29:12;;;;;;;1.85;1.23;;;;;;;24.13;50.92;101264.09;4858736;29;20053;-92
2022/09/07 01:34:24;;;;;;;3.03;1.27;;;;;;;24.13;50.74;101269.34;4864476;29;20740;-91
2022/09/07 01:37:02;;;;;;;2.33;1.30;;;;;;;24.13;50.89;101264.09;4849278;29;20061;-91
2022/09/07 01:42:12;;;;;;;3.67;1.33;;;;;;;24.15;50.92;101256.13;4867542;29;20925;-91
2022/09/07 01:47:12;;;;;;;3.78;1.35;;;;;;;24.14;50.68;101262.31;4864529;29;20634;-91
2022/09/07 01:52:12;;;;;;;2.80;1.40;;;;;;;24.14;50.79;101268.44;4869902;29;21307;-91
2022/09/07 01:57:12;;;;;;;3.65;1.15;;;;;;;24.14;50.99;101267.59;4867324;29;20053;-90
2022/09/07 02:02:12;;;;;;;3.42;1.17;;;;;;;24.13;51.13;101274.63;4867674;29;20776;-91
2022/09/07 02:07:21;;;;;;;2.72;1.40;;;;;;;24.15;50.94;101269.28;4864286;29;20061;-91
2022/09/07 02:10:00;;;;;;;2.47;1.30;;;;;;;24.13;50.57;101274.63;4848477;29;20144;-91
2022/09/07 02:12:33;;;;;;;3.13;1.20;;;;;;;24.14;50.84;101278.94;4853957;29;20061;-93
2022/09/07 02:15:04;;;;;;;3.15;1.23;;;;;;;24.14;50.64;101283.34;4849790;29;20077;-92
2022/09/07 02:17:38;;;;;;;1.90;1.02;;;;;;;24.14;50.51;101278.09;4853484;29;20117;-92
2022/09/07 02:20:27;;;;;;;2.03;1.27;;;;;;;24.14;50.81;101278.09;4850106;29;20085;-91
2022/09/07 02:22:57;;;;;;;2.20;1.20;;;;;;;24.14;50.72;101280.72;4850001;29;20057;-92
2022/09/07 02:25:31;;;;;;;2.53;1.17;;;;;;;24.14;50.72;101286.84;4858591;29;20485;-91
2022/09/07 02:28:08;;;;;;;1.98;1.05;;;;;;;24.13;50.55;101287.75;4852884;29;20102;-90
2022/09/07 02:30:34;;;;;;;2.80;1.20;;;;;;;24.14;50.81;101291.25;4855147;29;20111;-90
2022/09/07 02:32:59;;;;;;;2.08;1.10;;;;;;;24.14;50.72;101288.63;4874494;29;20060;-90
2022/09/07 02:35:25;;;;;;;2.67;1.20;;;;;;;24.14;50.84;101300.00;4865552;29;20080;-91
2022/09/07 02:37:52;;;;;;;2.22;1.08;;;;;;;24.15;50.97;101293.84;4856513;29;20098;-90
2022/09/07 02:40:17;;;;;;;3.00;1.00;;;;;;;24.15;50.90;101295.59;4871195;29;20078;-90
2022/09/07 02:42:45;;;;;;;1.40;1.00;;;;;;;24.15;50.90;101290.31;4842664;29;20046;-91
2022/09/07 02:45:12;;;;;;;2.33;0.90;;;;;;;24.14;50.96;101300.00;4880904;29;20073;-89
2022/09/07 02:50:22;;;;;;;2.97;1.10;;;;;;;24.13;50.75;101308.81;4875065;29;20053;-90
2022/09/07 02:53:03;;;;;;;3.55;1.10;;;;;;;24.15;50.90;101312.25;4856753;29;20045;-91
2022/09/07 02:58:18;;;;;;;1.58;0.90;;;;;;;24.14;50.63;101300.00;4868188;29;21154;-90
2022/09/07 03:00:57;;;;;;;1.20;0.82;;;;;;;24.15;50.70;101300.84;4816258;29;1277223;-91
2022/09/07 03:06:37;;;;;;;2.33;1.00;;;;;;;24.15;50.52;101292.94;4869642;29;20054;-91
2022/09/07 03:09:08;;;;;;;2.08;0.90;;;;;;;24.14;50.91;101284.22;4854510;29;20061;-90
2022/09/07 03:11:37;;;;;;;3.38;1.27;;;;;;;24.14;50.68;101275.47;4857391;29;20046;-90
2022/09/07 03:14:18;;;;;;;2.92;1.00;;;;;;;24.13;50.61;101272.00;4854724;29;21201;-92
2022/09/07 03:16:45;;;;;;;1.98;0.77;;;;;;;24.14;50.83;101268.44;4852869;29;20408;-91
2022/09/07 03:19:10;;;;;;;1.92;1.00;;;;;;;24.14;50.91;101264.94;4852076;29;20476;-91
2022/09/07 03:21:35;;;;;;;1.33;0.98;;;;;;;24.13;50.89;101266.72;4836987;29;20141;-92
2022/09/07 03:24:01;;;;;;;1.55;0.90;;;;;;;24.13;50.39;101260.63;4853014;29;20065;-91
2022/09/07 03:26:27;;;;;;;1.73;0.90;;;;;;;24.14;50.58;101259.69;4872153;29;20059;-91
2022/09/07 03:28:52;;;;;;;2.83;1.10;;;;;;;24.13;50.53;101253.59;4853575;29;20073;-91
2022/09/07 03:31:18;;;;;;;5.05;0.68;;;;;;;24.12;50.73;101256.25;4837433;29;20053;-91
2022/09/07 03:33:44;;;;;;;1.38;0.93;;;;;;;24.13;50.71;101256.22;4836093;29;20064;-90
2022/09/07 03:36:09;;;;;;;1.42;0.85;;;;;;;24.13;50.72;101261.47;4851435;29;20072;-91
2022/09/07 03:38:34;;;;;;;2.70;0.82;;;;;;;24.12;50.59;101256.25;4836776;29;20058;-91
2022/09/07 03:41:02;;;;;;;1.38;0.80;;;;;;;24.12;50.58;101256.25;4852463;29;20053;-91
2022/09/07 03:43:28;;;;;;;2.45;0.90;;;;;;;24.12;50.75;101264.13;4871964;29;20053;-91
2022/09/07 03:45:59;;;;;;;2.30;1.17;;;;;;;24.12;50.80;101261.50;4851323;29;20062;-92
2022/09/07 03:48:24;;;;;;;1.55;0.90;;;;;;;24.13;50.80;101264.09;4857035;29;20079;-91
2022/09/07 03:50:58;;;;;;;2.35;0.60;;;;;;;24.11;50.73;101257.16;4835744;29;20053;-92
2022/09/07 03:53:23;;;;;;;2.25;0.90;;;;;;;24.11;50.70;101258.03;4856900;29;20054;-90
2022/09/07 03:56:20;;;;;;;1.25;0.80;;;;;;;24.11;50.53;101251.91;4835215;29;20156;-91
2022/09/07 03:58:47;;;;;;;1.52;0.80;;;;;;;24.11;50.70;101258.03;4851818;29;20178;-90
2022/09/07 04:01:16;;;;;;;1.08;0.77;;;;;;;24.10;50.45;101250.19;4873121;29;20056;-89
2022/09/07 04:03:43;;;;;;;1.23;0.75;;;;;;;24.11;50.53;101246.66;4850756;29;20069;-89
2022/09/07 04:06:08;;;;;;;1.05;0.82;;;;;;;24.09;50.83;101244.06;4842329;29;20054;-90
2022/09/07 04:08:35;;;;;;;1.05;0.70;;;;;;;24.09;50.88;101235.31;4851276;29;20053;-90
2022/09/07 04:11:03;;;;;;;1.80;0.82;;;;;;;24.10;50.45;101229.13;4852371;29;20053;-90
2022/09/07 04:13:29;;;;;;;1.00;0.70;;;;;;;24.09;50.63;101228.28;4855751;29;20119;-89
2022/09/07 04:15:55;;;;;;;1.42;0.85;;;;;;;24.09;50.90;101227.44;4851249;29;20074;-90
2022/09/07 04:18:21;;;;;;;1.55;0.80;;;;;;;24.09;50.77;101216.91;4859279;29;20057;-90
2022/09/07 04:20:48;;;;;;;1.55;0.93;;;;;;;24.08;50.77;101221.28;4837486;29;20056;-89
2022/09/07 04:23:14;;;;;;;1.50;0.70;;;;;;;24.08;50.63;101216.03;4843557;29;20125;-90
2022/09/07 04:28:05;;;;;;;1.65;0.90;;;;;;;24.08;51.13;101226.56;4875962;29;20049;-90
2022/09/07 04:30:33;;;;;;;1.05;0.70;;;;;;;24.08;50.60;101226.56;4861250;29;20101;-90
2022/09/07 04:32:59;;;;;;;1.65;0.80;;;;;;;24.09;50.65;101235.31;4859489;29;20080;-90
2022/09/07 04:35:24;;;;;;;1.55;0.70;;;;;;;24.09;50.62;101233.53;4862005;29;20057;-92
2022/09/07 04:37:49;;;;;;;1.25;0.80;;;;;;;24.08;50.35;101234.44;4859873;29;20450;-90
2022/09/07 04:40:15;;;;;;;1.35;0.63;;;;;;;24.08;50.54;101238.84;4861262;29;20055;-90
2022/09/07 04:42:40;;;;;;;1.63;0.90;;;;;;;24.09;50.42;101245.84;4858627;29;20433;-91
2022/09/07 04:45:06;;;;;;;1.80;0.90;;;;;;;24.08;50.60;101233.59;4860494;29;20057;-89
2022/09/07 04:47:31;;;;;;;1.52;0.90;;;;;;;24.07;50.69;101238.00;4861608;29;20101;-92
2022/09/07 04:49:57;;;;;;;1.00;0.68;;;;;;;24.08;50.64;101246.72;4859489;29;20057;-89
2022/09/07 04:52:23;;;;;;;1.02;0.60;;;;;;;24.07;50.48;101251.13;4876951;29;20088;-91
2022/09/07 04:54:49;;;;;;;0.93;0.70;;;;;;;24.08;50.67;101244.09;4859169;29;20644;-91
2022/09/07 04:57:20;;;;;;;1.00;0.80;;;;;;;24.08;50.56;101242.31;4839729;29;20053;-91
2022/09/07 04:59:46;;;;;;;0.85;0.70;;;;;;;24.08;50.58;101246.72;4831567;29;20064;-91
2022/09/07 05:02:14;;;;;;;1.20;0.50;;;;;;;24.08;50.22;101246.72;4831807;29;20053;-91
2022/09/07 05:04:41;;;;;;;1.58;0.80;;;;;;;24.08;50.32;101244.94;4832219;29;20050;-91
2022/09/07 05:07:09;;;;;;;1.00;0.65;;;;;;;24.10;50.24;101237.88;4852218;29;20053;-89
2022/09/07 05:09:35;;;;;;;1.10;0.70;;;;;;;24.10;50.30;101248.41;4854413;29;20321;-89
2022/09/07 05:12:01;;;;;;;5.82;1.20;;;;;;;24.12;50.89;101245.72;4864433;29;20064;-89
2022/09/07 05:14:26;;;;;;;2.97;1.23;;;;;;;23.91;50.74;101244.59;4850018;29;20049;-91
2022/09/07 05:16:52;;;;;;;4.53;1.15;;;;;;;23.62;51.53;101247.13;4849605;29;20137;-89
2022/09/07 05:19:17;;;;;;;2.22;1.00;;;;;;;23.54;51.37;101249.13;4857776;29;20057;-92
2022/09/07 05:21:43;;;;;;;3.85;1.38;;;;;;;23.42;51.46;101245.06;4849644;29;20102;-93
2022/09/07 05:24:09;;;;;;;2.70;1.35;;;;;;;23.38;51.43;101240.81;4862314;29;20061;-90
2022/09/07 05:26:36;;;;;;;2.65;1.27;;;;;;;23.36;51.56;101239.13;4850314;29;20049;-92
2022/09/07 05:32:05;;;;;;;4.60;1.17;;;;;;;23.30;51.46;101260.28;4864661;29;20068;-91
2022/09/07 05:34:33;;;;;;;3.67;1.25;;;;;;;23.27;51.54;101258.63;4847267;29;20417;-90
2022/09/07 05:36:58;;;;;;;3.78;1.52;;;;;;;23.25;51.41;101256.94;4847908;29;20064;-89
2022/09/07 05:39:24;;;;;;;4.78;1.48;;;;;;;23.20;51.47;101255.28;4851829;29;20053;-90
2022/09/07 05:41:50;;;;;;;4.85;1.63;;;;;;;23.17;51.89;101258.00;4850971;29;20057;-90
2022/09/07 05:44:15;;;;;;;3.97;1.42;;;;;;;23.23;51.48;101256.13;4871966;29;20113;-89
2022/09/07 05:46:43;;;;;;;1.83;1.25;;;;;;;23.21;51.44;101258.78;4849437;29;20054;-89
2022/09/07 05:49:09;;;;;;;3.45;1.42;;;;;;;23.19;51.37;101263.19;4851449;29;20046;-81
2022/09/07 05:51:36;;;;;;;3.90;1.67;;;;;;;23.22;51.79;101257.03;4841669;29;20062;-90
2022/09/07 05:54:05;;;;;;;2.92;1.35;;;;;;;23.16;51.56;101258.91;4849843;29;20481;-89
2022/09/07 05:56:36;;;;;;;2.55;1.52;;;;;;;23.15;51.64;101270.31;4850104;29;20106;-90
2022/09/07 05:59:05;;;;;;;2.45;1.42;;;;;;;23.19;51.61;101271.97;4867175;29;20060;-90
2022/09/07 06:01:35;;;;;;;3.80;1.50;;;;;;;23.20;51.40;101272.81;4854594;29;20187;-91
2022/09/07 06:04:08;;;;;;;6.07;1.50;;;;;;;23.26;51.17;101280.53;4866767;29;20073;-90
2022/09/07 06:06:37;;;;;;;3.05;1.65;;;;;;;23.40;51.08;101281.03;4859992;29;20053;-91
2022/09/07 06:09:05;;;;;;;2.25;1.50;;;;;;;23.81;50.02;101280.81;4851093;29;21148;-92
2022/09/07 06:14:15;;;;;;;3.30;1.40;;;;;;;24.43;48.22;101270.19;4864956;29;20065;-91
2022/09/07 06:16:57;;;;;;;;;;;;;;;;;;;;;
2022/09/07 06:19:36;;;;;;;5.10;1.75;;;;;;;24.84;46.88;101277.66;4867475;29;20083;-90
2022/09/07 06:22:05;;;;;;;3.83;1.85;;;;;;;24.68;47.26;101282.56;4850797;29;20506;-90
2022/09/07 06:24:33;;;;;;;3.95;1.63;;;;;;;25.48;45.33;101279.03;4854176;29;20050;-91
2022/09/07 06:27:09;;;;;;;3.13;1.63;;;;;;;25.29;45.56;101276.19;4848651;29;20081;-92
2022/09/07 06:29:37;;;;;;;5.82;1.65;;;;;;;23.99;48.43;101282.03;4854314;29;20056;-91
2022/09/07 06:32:03;;;;;;;2.60;1.50;;;;;;;23.45;50.37;101282.66;4849531;29;20057;-88
2022/09/07 06:34:28;;;;;;;5.30;1.70;;;;;;;23.38;51.25;101280.19;4853695;29;20057;-88
2022/09/07 06:36:54;;;;;;;7.20;1.80;;;;;;;23.33;50.98;101289.13;4848502;29;20485;-90
2022/09/07 06:39:27;;;;;;;4.45;1.65;;;;;;;23.30;51.65;101284.81;4870792;29;20078;-91
2022/09/07 06:41:53;;;;;;;5.25;1.52;;;;;;;23.29;51.52;101290.09;4834426;29;20049;-88
2022/09/07 06:44:21;;;;;;;5.35;1.42;;;;;;;23.31;51.88;101297.03;4856903;29;20496;-90
2022/09/07 06:49:13;;;;;;;5.03;1.50;;;;;;;23.35;52.29;101303.94;4868259;29;20060;-91
2022/09/07 06:54:05;;;;;;;2.42;1.48;;;;;;;23.55;51.93;101313.03;4863592;29;20057;-90
2022/09/07 06:56:31;;;;;;;2.80;1.40;;;;;;;23.66;51.70;101310.13;4850377;29;20101;-90
2022/09/07 06:58:59;;;;;;;3.90;1.45;;;;;;;23.57;51.78;101321.75;4849529;29;20057;-90
2022/09/07 07:01:38;;;;;;;;;;;;;;;;;;;;;
2022/09/07 07:04:04;;;;;;;3.00;1.40;;;;;;;23.72;51.45;101323.94;4868127;29;20059;-91
2022/09/07 07:06:39;;;;;;;6.03;1.77;;;;;;;23.55;51.85;101319.16;4854143;29;20117;-90
2022/09/07 07:09:10;;;;;;;4.15;1.80;;;;;;;23.62;51.68;101319.84;4846134;29;20114;-92
2022/09/07 07:11:36;;;;;;;4.40;1.50;;;;;;;23.69;51.48;101324.03;4849717;29;20144;-90
2022/09/07 07:14:04;;;;;;;3.05;1.33;;;;;;;23.75;51.35;101315.13;4847305;29;20089;-90
2022/09/07 07:16:35;;;;;;;3.45;1.67;;;;;;;23.66;51.80;101318.84;4849357;29;20053;-90
2022/09/07 07:19:03;;;;;;;2.23;1.50;;;;;;;23.68;51.38;101326.72;4680935;29;5280178;-91
2022/09/07 07:21:28;;;;;;;3.03;1.40;;;;;;;23.55;51.32;101329.66;4857923;29;20073;-90
2022/09/07 07:23:54;;;;;;;4.47;1.73;;;;;;;23.47;52.00;101331.63;4852738;29;20077;-90
2022/09/07 07:26:22;;;;;;;3.05;1.45;;;;;;;23.48;52.27;101335.13;4858520;29;20057;-90
2022/09/07 07:28:50;;;;;;;2.95;1.30;;;;;;;23.50;52.19;101338.59;4851610;29;20050;-91
2022/09/07 07:31:20;;;;;;;3.88;1.60;;;;;;;23.57;51.76;101335.72;4858804;29;20046;-89
2022/09/07 07:33:48;;;;;;;6.38;1.75;;;;;;;23.46;52.34;101331.69;4852005;29;20057;-90
2022/09/07 07:36:22;;;;;;;4.57;1.67;;;;;;;23.38;52.46;101340.59;4858241;29;20064;-89
2022/09/07 07:38:51;;;;;;;4.13;1.67;;;;;;;23.37;52.55;101332.78;4851246;29;20181;-89
2022/09/07 07:41:18;;;;;;;4.00;1.60;;;;;;;23.42;52.16;101344.03;4858262;29;20052;-89
2022/09/07 07:43:43;;;;;;;4.28;1.50;;;;;;;23.38;52.54;101337.13;4851530;29;20057;-90
2022/09/07 07:46:15;;;;;;;5.03;1.70;;;;;;;23.45;52.21;101335.19;4842877;29;20061;-89
2022/09/07 07:48:41;;;;;;;2.90;1.42;;;;;;;23.49;52.10;101332.44;4858600;29;20050;-88
2022/09/07 07:51:09;;;;;;;4.05;1.70;;;;;;;23.53;52.18;101331.47;4861033;29;20057;-88
2022/09/07 07:53:37;;;;;;;3.55;1.50;;;;;;;23.64;51.65;101330.31;4854516;29;20191;-85
2022/09/07 07:56:04;;;;;;;3.40;1.58;;;;;;;23.76;51.83;101336.13;4856006;29;20053;-86
2022/09/07 07:58:31;;;;;;;4.85;1.80;;;;;;;23.70;51.88;101336.25;4876388;29;20045;-86
2022/09/07 08:01:02;;;;;;;4.38;1.95;;;;;;;23.67;52.08;101333.72;4856289;29;20072;-91
2022/09/07 08:03:27;;;;;;;2.92;1.77;;;;;;;23.64;52.45;101331.19;4860052;29;20442;-86
2022/09/07 08:05:54;;;;;;;4.05;1.85;;;;;;;23.68;52.82;101347.72;4854237;29;20080;-86
2022/09/07 08:08:25;;;;;;;2.50;1.85;;;;;;;23.64;52.98;101336.44;4854718;29;20432;-87
2022/09/07 08:10:51;;;;;;;8.23;2.17;;;;;;;23.69;52.89;101341.56;4856669;29;20045;-89
2022/09/07 08:13:18;;;;;;;4.75;2.13;;;;;;;23.63;52.92;101350.47;4834920;29;20050;-88
2022/09/07 08:15:44;;;;;;;5.90;2.10;;;;;;;23.73;52.82;101351.09;4855413;29;20057;-89
2022/09/07 08:18:11;;;;;;;4.75;1.80;;;;;;;23.74;52.64;101355.44;4854136;29;20084;-88
2022/09/07 08:20:39;;;;;;;4.72;1.92;;;;;;;23.71;52.76;101347.63;4852945;29;20053;-89
2022/09/07 08:23:10;;;;;;;4.07;1.88;;;;;;;23.71;53.25;101343.22;4850611;29;20144;-90
2022/09/07 08:25:36;;;;;;;3.22;1.98;;;;;;;23.67;53.35;101339.00;4855187;29;20045;-89
2022/09/07 08:28:04;;;;;;;3.95;2.22;;;;;;;23.68;53.22;101345.09;4851507;29;20054;-89
2022/09/07 08:30:37;;;;;;;4.90;2.58;;;;;;;23.69;52.90;101336.31;4840956;29;20558;-89
2022/09/07 08:33:05;;;;;;;3.67;2.90;;;;;;;23.70;53.08;101331.00;4851983;29;20053;-89
2022/09/07 08:35:38;;;;;;;4.55;2.70;;;;;;;23.69;52.95;101331.94;4855462;29;20152;-90
2022/09/07 08:38:14;;;;;;;4.72;2.70;;;;;;;23.71;53.16;101319.59;4852561;29;20057;-89
2022/09/07 08:43:41;;;;;;;4.65;2.75;;;;;;;23.68;53.65;101318.81;4861016;29;20136;-88
2022/09/07 08:49:14;;;;;;;7.28;2.40;;;;;;;23.75;53.44;101329.13;4865959;29;20411;-90
2022/09/07 08:54:17;;;;;;;5.03;2.40;;;;;;;23.72;53.28;101326.56;4861340;29;20287;-90
2022/09/07 08:57:24;;;;;;;4.75;2.17;;;;;;;23.76;53.16;101327.41;4854202;29;20588;-88
2022/09/07 09:00:12;;;;;;;4.43;2.60;;;;;;;23.76;53.37;101322.16;4859781;29;20049;-90
2022/09/07 09:02:38;;;;;;;4.68;2.40;;;;;;;23.76;53.70;101316.88;4862305;29;20555;-91
2022/09/07 09:05:28;;;;;;;4.82;2.50;;;;;;;23.79;53.61;101319.41;4858271;29;20058;-91
2022/09/07 09:08:09;;;;;;;3.38;2.45;;;;;;;23.73;53.64;101325.66;4850283;29;20125;-91
2022/09/07 09:19:34;;;;;;;3.38;2.20;;;;;;;23.80;53.77;101327.28;4872005;29;20423;-91
2022/09/07 09:22:13;;;;;;;4.05;2.40;;;;;;;23.82;53.69;101324.56;4855722;29;20046;-91
2022/09/07 09:27:05;;;;;;;4.90;2.28;;;;;;;23.84;53.60;101316.66;4872606;29;20057;-92
2022/09/07 09:29:32;;;;;;;5.53;2.30;;;;;;;23.81;53.60;101323.72;4859395;29;20136;-92
2022/09/07 09:31:57;;;;;;;7.43;2.10;;;;;;;23.81;53.17;101326.34;4854205;29;20053;-93
2022/09/07 09:34:25;;;;;;;4.72;2.00;;;;;;;23.81;53.29;101322.88;4858705;29;20417;-93
2022/09/07 09:36:53;;;;;;;2.92;1.92;;;;;;;23.81;53.29;101321.09;4852232;29;20056;-93
2022/09/07 09:39:35;;;;;;;4.10;1.90;;;;;;;23.82;53.21;101327.19;4857032;29;20054;-94
2022/09/07 09:42:31;;;;;;;3.22;1.80;;;;;;;23.80;53.33;101323.75;4850942;29;20081;-93
2022/09/07 09:45:04;;;;;;;3.78;1.80;;;;;;;23.83;53.10;101328.09;4859752;29;20077;-93
2022/09/07 09:47:31;;;;;;;;;;;;;;;23.86;53.05;101325.38;4851002;29;20077;-93
2022/09/07 09:50:08;;;;;;;3.03;2.00;;;;;;;23.85;53.20;101321.88;4851415;29;19924;-93
2022/09/07 09:52:35;;;;;;;3.30;1.75;;;;;;;23.87;53.20;101316.59;4854100;29;20054;-88
2022/09/07 09:55:05;;;;;;;4.32;1.88;;;;;;;23.87;53.20;101324.47;4849465;29;20161;-90
2022/09/07 10:00:06;;;;;;;4.00;1.85;;;;;;;23.90;52.94;101330.47;4875391;29;20049;-90
2022/09/07 10:02:32;;;;;;;3.13;1.70;;;;;;;23.89;53.06;101330.53;4860647;29;20112;-89
2022/09/07 10:04:58;;;;;;;4.20;1.85;;;;;;;23.86;52.68;101318.34;4858300;29;20140;-90
2022/09/07 10:07:28;;;;;;;3.05;1.70;;;;;;;23.83;52.70;101318.44;4853494;29;20148;-91
2022/09/07 10:09:56;;;;;;;3.78;1.80;;;;;;;23.84;52.67;101314.03;4858646;29;20049;-90
2022/09/07 10:12:36;;;;;;;3.10;1.60;;;;;;;23.85;52.55;101316.63;4861182;29;20458;-92
2022/09/07 10:15:04;;;;;;;3.35;1.70;;;;;;;23.86;52.47;101326.22;4876028;29;20528;-93
2022/09/07 10:20:14;;;;;;;6.25;1.80;;;;;;;23.78;51.78;101317.72;4878114;29;20053;-93
2022/09/07 10:25:26;;;;;;;3.33;1.67;;;;;;;23.86;52.37;101313.06;4864747;29;20063;-92
2022/09/07 10:28:09;;;;;;;6.72;1.95;;;;;;;23.83;52.35;101310.53;4846669;29;20081;-93
2022/09/07 10:36:15;;;;;;;6.75;1.80;;;;;;;23.88;51.71;101307.78;4868403;29;20592;-93
2022/09/07 10:38:55;;;;;;;5.03;1.60;;;;;;;23.88;51.83;101316.53;4855002;29;20053;-94
2022/09/07 10:41:36;;;;;;;5.75;2.03;;;;;;;23.89;51.64;101312.13;4871099;29;20165;-92
2022/09/07 10:44:05;;;;;;;7.45;2.08;;;;;;;23.91;51.32;101308.56;4867431;29;20061;-92
2022/09/07 10:49:30;;;;;;;4.65;1.85;;;;;;;23.92;51.17;101309.41;4872847;29;20053;-93
2022/09/07 10:52:15;;;;;;;5.05;1.90;;;;;;;23.89;50.97;101305.13;4876359;29;20168;-93
2022/09/07 10:55:04;;;;;;;7.63;1.98;;;;;;;23.87;50.32;101311.34;4873547;29;20121;-91
2022/09/07 11:00:11;;;;;;;7.40;2.00;;;;;;;23.85;50.13;101298.22;4901367;29;20048;-92
2022/09/07 11:02:41;;;;;;;5.40;1.92;;;;;;;23.85;49.90;101303.47;4885827;29;20049;-94
2022/09/07 11:05:31;;;;;;;6.13;1.75;;;;;;;23.89;49.83;101299.88;4879194;29;20096;-91
2022/09/07 11:08:16;;;;;;;6.53;2.13;;;;;;;23.90;49.44;101301.56;4874539;29;20074;-91
2022/09/07 11:11:04;;;;;;;5.75;1.98;;;;;;;23.92;49.72;101299.75;4861882;29;20045;-92
2022/09/07 11:13:36;;;;;;;7.18;2.00;;;;;;;23.94;49.44;101292.69;4863505;29;20114;-91
2022/09/07 11:16:10;;;;;;;5.57;2.50;;;;;;;23.97;49.92;101308.38;4860588;29;20057;-91
2022/09/07 11:21:16;;;;;;;8.45;2.70;;;;;;;23.98;49.60;101299.59;4875130;29;20404;-93
2022/09/07 11:26:28;;;;;;;7.15;2.35;;;;;;;23.96;48.64;101293.50;4878660;29;20068;-90
2022/09/07 11:28:59;;;;;;;10.73;2.20;;;;;;;23.94;48.79;101289.22;4873785;29;20060;-92
2022/09/07 11:34:16;;;;;;;7.70;2.10;;;;;;;23.95;48.67;101290.91;4825984;29;1326685;-91
2022/09/07 11:36:50;;;;;;;5.90;2.08;;;;;;;23.92;48.11;101289.25;4855876;29;20049;-93
2022/09/07 11:39:25;;;;;;;7.90;2.10;;;;;;;23.93;47.83;101285.72;4862524;29;20064;-92
2022/09/07 11:42:03;;;;;;;5.70;1.95;;;;;;;23.92;47.81;101291.03;4853692;29;20057;-92
2022/09/07 11:50:15;;;;;;;9.27;2.40;;;;;;;23.95;47.40;101288.28;4864510;29;20511;-92
2022/09/07 11:52:47;;;;;;;6.75;2.28;;;;;;;23.97;47.07;101286.47;4856689;29;20049;-94
2022/09/07 11:55:34;;;;;;;5.95;2.13;;;;;;;23.96;46.67;101282.16;4875361;29;20081;-92
2022/09/07 11:58:24;;;;;;;5.45;1.90;;;;;;;23.96;46.49;101283.00;4854049;29;20045;-93
2022/09/07 12:01:09;;;;;;;10.35;2.75;;;;;;;23.96;46.17;101282.16;4854384;29;20060;-92
2022/09/07 12:09:33;;;;;;;10.82;2.45;;;;;;;24.02;47.02;101272.31;4871225;29;20056;-92
2022/09/07 12:12:13;;;;;;;7.78;2.45;;;;;;;24.02;47.27;101264.41;4853934;29;20128;-92
2022/09/07 12:17:14;;;;;;;8.85;2.28;;;;;;;24.02;47.55;101274.94;4861566;29;20057;-93
2022/09/07 12:22:19;;;;;;;6.97;2.22;;;;;;;24.02;47.66;101271.44;4861244;29;21791;-92
2022/09/07 12:24:53;;;;;;;9.65;2.60;;;;;;;24.01;47.35;101273.19;4868919;29;20148;-95
2022/09/07 12:27:19;;;;;;;7.80;2.53;;;;;;;24.04;47.71;101277.53;4872229;29;20397;-93
2022/09/07 12:29:49;;;;;;;11.07;2.58;;;;;;;24.03;47.41;101274.00;4851443;29;20060;-93
2022/09/07 12:35:32;;;;;;;8.10;2.30;;;;;;;24.02;47.54;101274.94;4869176;29;20535;-93
2022/09/07 12:37:59;;;;;;;6.65;2.40;;;;;;;24.02;47.75;101272.31;4852971;29;20052;-93
2022/09/07 12:40:27;;;;;;;9.63;2.63;;;;;;;24.05;47.43;101270.50;4849367;29;20485;-91
2022/09/07 12:43:11;;;;;;;8.07;2.42;;;;;;;24.03;47.59;101274.00;4850736;29;20090;-90
2022/09/07 12:45:39;;;;;;;10.02;2.35;;;;;;;24.02;47.41;101268.81;4849140;29;20554;-92
2022/09/07 12:48:14;;;;;;;5.82;2.25;;;;;;;23.98;47.46;101268.03;4862541;29;20053;-92
2022/09/07 12:53:11;;;;;;;9.13;2.72;;;;;;;23.97;47.61;101268.06;4865837;29;20057;-92
2022/09/07 12:58:20;;;;;;;7.68;2.05;;;;;;;23.97;48.22;101258.41;4868886;29;20045;-94
2022/09/07 13:00:46;;;;;;;9.90;2.40;;;;;;;23.98;48.16;101259.31;4868571;29;20052;-94
2022/09/07 13:03:23;;;;;;;10.07;2.45;;;;;;;23.98;48.17;101265.41;4857720;29;20124;-92
2022/09/07 13:05:49;;;;;;;10.23;2.40;;;;;;;23.95;47.96;101260.25;4850432;29;20049;-93
2022/09/07 13:08:33;;;;;;;9.43;2.28;;;;;;;23.94;48.10;101260.28;4862804;29;20071;-93
2022/09/07 13:11:41;;;;;;;10.70;2.70;;;;;;;23.94;48.39;101260.28;4852211;29;20132;-93
2022/09/07 13:14:20;;;;;;;13.55;2.30;;;;;;;23.93;48.40;101255.94;4843040;29;20105;-94
2022/09/07 13:16:46;;;;;;;5.38;2.10;;;;;;;23.93;48.28;101259.44;4851945;29;20571;-92
2022/09/07 13:19:19;;;;;;;8.77;1.98;;;;;;;23.91;48.18;101253.38;4847253;29;20049;-93
2022/09/07 13:21:48;;;;;;;9.60;2.50;;;;;;;23.90;48.49;101250.78;4848397;29;20046;-91
2022/09/07 13:24:15;;;;;;;8.88;2.30;;;;;;;23.89;48.13;101252.56;4872176;29;20056;-90
2022/09/07 13:29:12;;;;;;;9.40;3.03;;;;;;;23.88;48.65;101249.97;4868175;29;20045;-93
2022/09/07 13:34:33;;;;;;;10.65;2.78;;;;;;;23.88;48.45;101240.31;4867985;29;20057;-93
2022/09/07 13:37:13;;;;;;;12.65;2.90;;;;;;;23.88;48.76;101239.44;4851847;29;20045;-92
2022/09/07 13:42:06;;;;;;;8.48;3.00;;;;;;;23.90;49.10;101233.22;4864623;29;20422;-92
2022/09/07 13:44:35;;;;;;;10.93;2.80;;;;;;;23.89;48.91;101233.25;4850377;29;20497;-91